Terminal Aerodrome Forecast
Issued by NWS Wilmington, NC

Home | Current Version | Previous Version | Text Only | Print | Product List | Glossary On
Versions: 1 2 3 4 5 6 7 8 9 10 11 12
000
FTUS42 KILM 280520
TAFLBT
TAF
KLBT 280520Z 2806/2906 20005KT P6SM SKC
     FM281200 25008KT P6SM SKC
     FM290000 20004KT P6SM SKC=

USA.gov is the U.S. government's official web portal to all federal, state and local government web resources and services.